Time;durP1;ratioP1;P1;durP2;ratioP2;P2;SDS_P1;SDS_P2;PMS_P1;PMS_P2;Temp;Humidity;BMP_temperature;BMP_pressure;BME280_temperature;BME280_humidity;BME280_pressure;Samples;Min_cycle;Max_cycle;Signal;HPM_P1;HPM_P2
2022/11/08 00:01:33;;;;;;;74.80;35.70;;;;;;;6.27;88.11;100419.70;103646;1282;24057;-59
2022/11/08 00:04:06;;;;;;;60.40;28.40;;;;;;;6.24;87.90;100425.00;103637;1274;22532;-60
2022/11/08 00:15:10;;;;;;;45.20;19.40;;;;;;;6.13;87.73;100426.95;103743;1304;22593;-60
2022/11/08 00:17:41;;;;;;;36.30;17.70;;;;;;;6.11;87.76;100425.69;103656;1283;26012;-61
2022/11/08 00:20:14;;;;;;;41.80;20.50;;;;;;;6.07;87.84;100423.64;103656;1304;26500;-59
2022/11/08 00:22:45;;;;;;;46.40;20.80;;;;;;;6.06;88.16;100421.49;103694;1305;22477;-60
2022/11/08 00:25:18;;;;;;;42.90;20.90;;;;;;;6.04;88.01;100425.52;103736;1302;22530;-59
2022/11/08 00:27:49;;;;;;;44.40;20.30;;;;;;;6.02;88.02;100424.38;103632;1281;25551;-59
2022/11/08 00:30:21;;;;;;;34.10;15.60;;;;;;;6.00;87.97;100421.02;103529;1282;24379;-58
2022/11/08 00:32:52;;;;;;;32.40;14.30;;;;;;;5.98;88.05;100418.23;103663;1304;22807;-59
2022/11/08 00:35:24;;;;;;;29.70;14.00;;;;;;;5.96;88.14;100419.11;103752;1303;22492;-59
2022/11/08 00:37:56;;;;;;;34.60;14.80;;;;;;;5.92;88.23;100416.91;103690;1282;22474;-61
2022/11/08 00:40:27;;;;;;;31.10;13.60;;;;;;;5.91;88.36;100413.59;103846;1291;22609;-60
2022/11/08 00:42:59;;;;;;;34.70;13.50;;;;;;;5.88;88.41;100413.80;103637;1303;22479;-58
2022/11/08 00:45:31;;;;;;;29.20;12.50;;;;;;;5.87;88.53;100415.81;103775;1305;22439;-60
2022/11/08 00:48:02;;;;;;;26.10;10.50;;;;;;;5.85;88.61;100417.70;103739;1289;22483;-60
2022/11/08 00:50:34;;;;;;;24.80;10.80;;;;;;;5.84;88.75;100420.58;103872;1304;22592;-59
2022/11/08 00:53:05;;;;;;;28.30;12.30;;;;;;;5.83;88.89;100416.88;103812;1305;22492;-59
2022/11/08 00:55:37;;;;;;;26.80;11.80;;;;;;;5.80;88.73;100419.11;103679;1298;22473;-59
2022/11/08 00:58:08;;;;;;;27.60;11.20;;;;;;;5.71;88.35;100421.10;103709;1281;25357;-58
2022/11/08 01:00:40;;;;;;;28.90;11.70;;;;;;;5.59;88.20;100420.27;103724;1304;25064;-60
2022/11/08 01:03:21;;;;;;;24.30;10.50;;;;;;;5.49;88.24;100418.98;103688;1282;25867;-60
2022/11/08 01:05:53;;;;;;;24.80;11.40;;;;;;;5.47;88.45;100419.53;103696;1288;22465;-60
2022/11/08 01:08:25;;;;;;;30.20;11.00;;;;;;;5.47;88.43;100417.09;103693;1281;22644;-59
2022/11/08 01:11:01;;;;;;;25.90;11.40;;;;;;;5.44;88.46;100413.92;103710;1283;25391;-60
2022/11/08 01:13:35;;;;;;;25.60;10.40;;;;;;;5.44;88.56;100407.27;103620;1295;22481;-60
2022/11/08 01:16:12;;;;;;;26.10;11.20;;;;;;;5.44;88.65;100406.88;103740;1281;24282;-59
2022/11/08 01:18:45;;;;;;;29.20;12.10;;;;;;;5.44;88.50;100402.44;103695;1297;22526;-58
2022/11/08 01:21:17;;;;;;;24.40;10.70;;;;;;;5.44;88.42;100397.55;103731;1281;25228;-58
2022/11/08 01:23:49;;;;;;;26.20;10.80;;;;;;;5.43;88.21;100400.98;103729;1285;22475;-62
2022/11/08 01:26:26;;;;;;;33.60;13.20;;;;;;;5.42;88.30;100398.54;104149;1280;22513;-60
2022/11/08 01:28:58;;;;;;;28.50;12.20;;;;;;;5.41;88.24;100400.56;104547;1280;22479;-59
2022/11/08 01:31:31;;;;;;;31.30;13.80;;;;;;;5.39;88.13;100402.66;103669;1282;22609;-59
2022/11/08 01:34:03;;;;;;;29.10;12.00;;;;;;;5.38;88.04;100400.56;103692;1305;22469;-60
2022/11/08 01:36:34;;;;;;;28.50;12.80;;;;;;;5.36;88.01;100402.36;103683;1287;23920;-59
2022/11/08 01:39:06;;;;;;;26.40;12.70;;;;;;;5.34;87.88;100405.69;103719;1287;24368;-60
2022/11/08 01:41:38;;;;;;;26.50;13.00;;;;;;;5.29;87.69;100410.15;103765;1304;22471;-59
2022/11/08 01:44:17;;;;;;;30.40;12.30;;;;;;;5.25;87.59;100405.86;103770;1299;22465;-59
2022/11/08 01:46:48;;;;;;;28.80;13.60;;;;;;;5.21;87.85;100411.48;103996;1282;24040;-60
2022/11/08 01:49:44;;;;;;;26.70;13.10;;;;;;;5.20;87.66;100412.89;103748;1281;25272;-58
2022/11/08 01:52:24;;;;;;;28.40;14.00;;;;;;;5.17;87.71;100408.79;103686;1281;26498;-58
2022/11/08 01:55:01;;;;;;;;;;;;;;;5.16;87.94;100405.26;103682;1281;22481;-59
2022/11/08 01:57:36;;;;;;;27.60;11.30;;;;;;;5.13;87.96;100408.56;103661;1307;22565;-59
2022/11/08 02:00:12;;;;;;;24.00;10.60;;;;;;;5.12;87.96;100409.31;103753;1304;22449;-59
2022/11/08 02:02:47;;;;;;;23.50;10.00;;;;;;;5.08;87.59;100409.27;103714;1281;22580;-58
2022/11/08 02:05:27;;;;;;;29.30;10.10;;;;;;;5.02;87.52;100408.80;103616;1285;22600;-59
2022/11/08 02:08:07;;;;;;;23.30;9.90;;;;;;;4.99;87.82;100400.91;103724;1287;24260;-60
2022/11/08 02:10:40;;;;;;;25.40;10.00;;;;;;;4.98;87.87;100398.64;103704;1297;24253;-58
2022/11/08 02:13:15;;;;;;;21.60;9.70;;;;;;;4.97;87.82;100396.92;103739;1281;22411;-58
2022/11/08 02:15:47;;;;;;;22.70;10.10;;;;;;;4.93;87.68;100394.88;103668;1304;24266;-59
2022/11/08 02:18:20;;;;;;;24.80;10.10;;;;;;;4.92;87.91;100392.15;103592;1304;22471;-59
2022/11/08 02:21:01;;;;;;;27.30;12.60;;;;;;;4.91;87.89;100387.52;103706;1305;22458;-59
2022/11/08 02:23:43;;;;;;;28.20;12.30;;;;;;;4.89;87.73;100387.88;103585;1306;24146;-59
2022/11/08 02:26:16;;;;;;;32.80;15.30;;;;;;;4.86;87.63;100383.63;103814;1304;24232;-58
2022/11/08 02:28:48;;;;;;;32.10;14.40;;;;;;;4.83;87.70;100387.09;103743;1305;24285;-59
2022/11/08 02:31:21;;;;;;;31.70;12.80;;;;;;;4.82;87.76;100382.95;103712;1306;22735;-58
2022/11/08 02:33:52;;;;;;;27.80;11.60;;;;;;;4.80;87.74;100384.73;103703;1298;22648;-59
2022/11/08 02:36:25;;;;;;;26.90;11.50;;;;;;;4.79;87.73;100379.79;103689;1303;22446;-59
2022/11/08 02:38:57;;;;;;;24.90;10.40;;;;;;;4.77;87.54;100379.03;103878;1280;25365;-59
2022/11/08 02:41:29;;;;;;;23.80;10.30;;;;;;;4.75;87.63;100382.58;103713;1303;22461;-59
2022/11/08 02:44:01;;;;;;;25.50;11.20;;;;;;;4.74;87.88;100379.98;103709;1283;22463;-60
2022/11/08 02:46:32;;;;;;;25.40;10.20;;;;;;;4.73;87.82;100378.30;103665;1281;23212;-59
2022/11/08 02:49:04;;;;;;;22.90;10.60;;;;;;;4.69;87.47;100383.84;103633;1280;22478;-59
2022/11/08 02:51:35;;;;;;;26.80;11.20;;;;;;;4.64;87.46;100388.34;103656;1310;22467;-59
2022/11/08 02:54:07;;;;;;;23.30;11.00;;;;;;;4.61;87.57;100385.48;103776;1286;25275;-60
2022/11/08 02:56:38;;;;;;;27.00;11.10;;;;;;;4.60;87.73;100388.77;103750;1310;22467;-59
2022/11/08 02:59:10;;;;;;;25.40;11.60;;;;;;;4.58;87.68;100394.01;103695;1286;24266;-58
2022/11/08 03:01:41;;;;;;;28.10;11.20;;;;;;;4.56;87.65;100394.84;103630;1302;23939;-60
2022/11/08 03:04:13;;;;;;;29.40;11.60;;;;;;;4.56;87.64;100392.34;103647;1284;22484;-59
2022/11/08 03:06:44;;;;;;;28.60;11.90;;;;;;;4.54;87.73;100393.80;103675;1310;22498;-59
2022/11/08 03:09:15;;;;;;;32.80;11.10;;;;;;;4.54;87.92;100392.30;103771;1280;24322;-58
2022/11/08 03:11:47;;;;;;;25.70;11.10;;;;;;;4.55;88.15;100395.52;103778;1309;22486;-58
2022/11/08 03:14:19;;;;;;;29.30;11.90;;;;;;;4.54;88.14;100391.59;103761;1309;25409;-60
2022/11/08 03:16:50;;;;;;;30.50;12.70;;;;;;;4.55;88.08;100395.90;103608;1288;22481;-59
2022/11/08 03:19:22;;;;;;;29.90;11.60;;;;;;;4.53;88.15;100392.41;103685;1279;22424;-59
2022/11/08 03:21:53;;;;;;;26.70;10.70;;;;;;;4.50;88.34;100391.85;103641;1308;24377;-59
2022/11/08 03:24:24;;;;;;;30.60;13.10;;;;;;;4.51;88.43;100395.55;103711;1282;22477;-58
2022/11/08 03:26:56;;;;;;;25.30;11.30;;;;;;;4.51;88.41;100395.85;103816;1306;22450;-61
2022/11/08 03:29:27;;;;;;;25.70;10.30;;;;;;;4.52;88.45;100400.48;103754;1283;25588;-59
2022/11/08 03:31:59;;;;;;;28.10;11.90;;;;;;;4.53;88.62;100398.90;104156;1305;25933;-60
2022/11/08 03:34:30;;;;;;;24.00;10.00;;;;;;;4.53;88.56;100397.61;104353;1288;22461;-59
2022/11/08 03:37:01;;;;;;;28.80;9.80;;;;;;;4.54;88.63;100396.89;103555;1308;23192;-58
2022/11/08 03:39:33;;;;;;;23.80;9.40;;;;;;;4.54;88.74;100397.84;103584;1296;22513;-59
2022/11/08 03:42:05;;;;;;;25.00;9.40;;;;;;;4.55;88.80;100396.88;103612;1280;22476;-60
2022/11/08 03:44:36;;;;;;;29.40;10.80;;;;;;;4.54;88.92;100392.86;103709;1307;25861;-58
2022/11/08 03:47:09;;;;;;;29.00;11.10;;;;;;;4.54;88.95;100391.36;103753;1303;24289;-59
2022/11/08 03:49:41;;;;;;;24.80;9.80;;;;;;;4.55;88.94;100395.05;103711;1290;22479;-59
2022/11/08 03:52:14;;;;;;;25.90;10.90;;;;;;;4.53;88.87;100399.42;103697;1310;25656;-60
2022/11/08 03:54:45;;;;;;;22.50;8.60;;;;;;;4.52;88.91;100392.75;103626;1280;22465;-60
2022/11/08 03:57:16;;;;;;;26.10;9.70;;;;;;;4.52;88.99;100393.78;103701;1294;24799;-58
2022/11/08 03:59:48;;;;;;;24.00;9.70;;;;;;;4.52;88.93;100396.86;103735;1304;24250;-59
2022/11/08 04:02:19;;;;;;;23.90;10.00;;;;;;;4.52;88.92;100400.02;103748;1304;22870;-59
2022/11/08 04:04:51;;;;;;;26.90;11.50;;;;;;;4.51;88.95;100405.27;103734;1288;22432;-59
2022/11/08 04:07:23;;;;;;;26.80;9.90;;;;;;;4.50;88.96;100406.01;103736;1296;22482;-59
2022/11/08 04:09:54;;;;;;;31.20;11.60;;;;;;;4.49;89.02;100403.59;103597;1298;22468;-59
2022/11/08 04:15:17;;;;;;;26.30;11.10;;;;;;;4.44;88.92;100404.25;103639;1303;23223;-60
2022/11/08 04:23:33;;;;;;;28.30;12.00;;;;;;;4.42;89.08;100398.92;103652;1306;22779;-59
2022/11/08 04:26:06;;;;;;;27.60;11.30;;;;;;;4.42;88.92;100398.14;103768;1278;22784;-59
2022/11/08 04:28:39;;;;;;;35.50;14.60;;;;;;;4.40;88.86;100396.70;103743;1304;22486;-59
2022/11/08 04:31:16;;;;;;;38.40;15.30;;;;;;;4.37;88.90;100395.04;103690;1282;22487;-59
2022/11/08 04:33:47;;;;;;;38.70;14.90;;;;;;;4.35;88.88;100391.23;103686;1303;22864;-63
2022/11/08 04:36:20;;;;;;;40.80;17.70;;;;;;;4.32;88.80;100394.45;103736;1300;24333;-60
2022/11/08 04:38:52;;;;;;;51.10;23.40;;;;;;;4.29;88.94;100391.13;103918;1281;22509;-60
2022/11/08 04:41:25;;;;;;;52.20;22.80;;;;;;;4.28;89.03;100391.33;103568;1280;22458;-60
2022/11/08 04:43:58;;;;;;;58.10;30.00;;;;;;;4.27;89.03;100391.81;103458;1282;23328;-60
2022/11/08 04:46:30;;;;;;;56.70;28.40;;;;;;;4.25;89.16;100390.05;103845;1304;25431;-58
2022/11/08 04:49:02;;;;;;;63.30;29.50;;;;;;;4.24;89.13;100393.30;103723;1298;22492;-60
2022/11/08 04:51:34;;;;;;;51.50;27.50;;;;;;;4.24;89.12;100388.27;103652;1307;23525;-59
2022/11/08 04:54:06;;;;;;;51.90;25.90;;;;;;;4.22;89.03;100384.58;103724;1282;22466;-60
2022/11/08 04:56:37;;;;;;;55.20;25.30;;;;;;;4.20;89.06;100384.63;103789;1280;22475;-58
2022/11/08 04:59:10;;;;;;;44.40;24.30;;;;;;;4.17;88.94;100388.27;103541;1305;23881;-56
2022/11/08 05:01:41;;;;;;;39.60;19.80;;;;;;;4.14;89.02;100388.67;103815;1282;22867;-58
2022/11/08 05:04:13;;;;;;;33.60;16.50;;;;;;;4.10;89.10;100394.59;103732;1280;23801;-58
2022/11/08 05:06:45;;;;;;;42.00;19.60;;;;;;;4.08;88.97;100391.80;103775;1281;25220;-59
2022/11/08 05:09:16;;;;;;;37.60;17.30;;;;;;;4.07;89.01;100392.53;103428;1283;22527;-58
2022/11/08 05:11:48;;;;;;;34.40;15.60;;;;;;;4.04;88.81;100397.83;103799;1288;25645;-65
2022/11/08 05:14:19;;;;;;;28.50;14.50;;;;;;;4.00;89.04;100390.96;103406;1277;25372;-61
2022/11/08 05:16:51;;;;;;;31.00;14.60;;;;;;;3.99;89.12;100389.39;103701;1303;22423;-60
2022/11/08 05:24:56;;;;;;;30.00;12.50;;;;;;;3.97;89.17;100392.15;104404;1292;22474;-62
2022/11/08 05:27:29;;;;;;;35.90;12.80;;;;;;;3.98;89.30;100389.05;103700;1288;22464;-60
2022/11/08 05:30:00;;;;;;;28.90;12.40;;;;;;;3.97;89.27;100388.19;103630;1281;22465;-61
2022/11/08 05:32:31;;;;;;;29.10;12.60;;;;;;;3.98;89.36;100391.64;103774;1300;22559;-60
2022/11/08 05:35:02;;;;;;;30.50;11.70;;;;;;;3.97;89.52;100395.92;103433;1298;24336;-60
2022/11/08 05:37:34;;;;;;;34.00;12.70;;;;;;;3.98;89.53;100395.43;103206;1281;25313;-60
2022/11/08 05:40:07;;;;;;;32.30;11.80;;;;;;;3.98;89.40;100397.48;102894;1280;25679;-58
2022/11/08 05:42:38;;;;;;;32.30;13.70;;;;;;;3.97;89.39;100393.48;103188;1287;25308;-59
2022/11/08 05:45:12;;;;;;;31.30;12.80;;;;;;;3.97;89.32;100391.36;103187;1274;27857;-59
2022/11/08 05:47:48;;;;;;;38.80;14.90;;;;;;;3.94;89.27;100386.60;104403;1281;22466;-60
2022/11/08 05:50:19;;;;;;;30.70;12.40;;;;;;;3.92;89.15;100385.54;103243;1281;25690;-60
2022/11/08 05:52:53;;;;;;;26.10;11.90;;;;;;;3.89;89.27;100387.52;103250;1296;22473;-60
2022/11/08 05:55:25;;;;;;;32.90;12.60;;;;;;;3.89;89.31;100389.75;103092;1280;22478;-60
2022/11/08 05:57:56;;;;;;;25.20;11.20;;;;;;;3.88;89.29;100396.45;103141;1281;22493;-59
2022/11/08 06:00:28;;;;;;;31.10;12.70;;;;;;;3.87;89.30;100394.67;103206;1281;24654;-58
2022/11/08 06:03:01;;;;;;;30.70;13.90;;;;;;;3.85;89.19;100396.52;103207;1303;22480;-61
2022/11/08 06:05:35;;;;;;;35.00;14.40;;;;;;;3.83;89.27;100404.30;103331;1303;26023;-61
2022/11/08 06:08:09;;;;;;;30.00;14.10;;;;;;;3.81;89.24;100406.57;103537;1281;26431;-62
2022/11/08 06:10:48;;;;;;;40.80;14.30;;;;;;;3.78;89.38;100404.89;103433;1280;24429;-62
2022/11/08 06:13:21;;;;;;;30.30;12.50;;;;;;;3.75;89.62;100408.20;103585;1296;22406;-59
2022/11/08 06:16:03;;;;;;;33.50;12.40;;;;;;;3.76;89.51;100405.66;103663;1274;22464;-62
2022/11/08 06:18:49;;;;;;;30.80;12.80;;;;;;;3.74;89.38;100413.92;104296;1303;24305;-62
2022/11/08 06:21:26;;;;;;;28.60;12.30;;;;;;;3.71;89.35;100418.55;103487;1297;22488;-61
2022/11/08 06:23:57;;;;;;;25.80;12.70;;;;;;;3.71;89.46;100414.52;103461;1304;22472;-60
2022/11/08 06:26:29;;;;;;;27.20;12.30;;;;;;;3.72;89.60;100414.64;103604;1280;25374;-61
2022/11/08 06:29:00;;;;;;;27.00;11.50;;;;;;;3.73;89.61;100416.38;103452;1303;22466;-60
2022/11/08 06:31:32;;;;;;;29.10;13.50;;;;;;;3.73;89.61;100414.78;103377;1304;22948;-60
2022/11/08 06:34:03;;;;;;;31.40;12.70;;;;;;;3.74;89.76;100419.98;103518;1282;22556;-61
2022/11/08 06:36:36;;;;;;;31.50;11.70;;;;;;;3.75;89.80;100419.39;103438;1281;22597;-60
2022/11/08 06:39:07;;;;;;;31.20;12.30;;;;;;;3.76;89.83;100419.06;103477;1282;25370;-61
2022/11/08 06:41:39;;;;;;;31.80;12.90;;;;;;;3.77;89.95;100416.52;103404;1293;22478;-61
2022/11/08 06:44:11;;;;;;;48.30;22.80;;;;;;;3.77;90.07;100420.52;103421;1303;25251;-61
2022/11/08 06:46:42;;;;;;;52.50;24.40;;;;;;;3.79;90.10;100419.55;103436;1303;25221;-60
2022/11/08 06:49:15;;;;;;;65.20;29.60;;;;;;;3.81;90.18;100420.38;103414;1280;24244;-61
2022/11/08 06:51:46;;;;;;;76.00;33.40;;;;;;;3.81;90.40;100419.41;103423;1303;24323;-61
2022/11/08 06:54:19;;;;;;;84.90;38.20;;;;;;;3.83;90.56;100417.08;103473;1278;25471;-60
2022/11/08 06:56:50;;;;;;;102.80;46.50;;;;;;;3.86;90.77;100421.29;103480;1304;23956;-61
2022/11/08 06:59:23;;;;;;;106.00;43.50;;;;;;;3.87;91.14;100424.58;103457;1297;24192;-60
2022/11/08 07:01:54;;;;;;;93.90;37.80;;;;;;;3.89;91.44;100423.73;103385;1306;22482;-61
2022/11/08 07:04:25;;;;;;;83.00;35.40;;;;;;;3.91;91.82;100420.68;104149;1274;25267;-61
2022/11/08 07:06:57;;;;;;;77.90;30.10;;;;;;;3.94;92.09;100423.54;103640;1280;22471;-61
2022/11/08 07:09:29;;;;;;;65.60;27.30;;;;;;;3.97;92.37;100429.47;103490;1281;22485;-60
2022/11/08 07:12:00;;;;;;;55.00;23.10;;;;;;;4.01;92.64;100433.40;103597;1279;22482;-61
2022/11/08 07:14:34;;;;;;;57.90;22.50;;;;;;;4.06;92.93;100437.72;103672;1303;22515;-61
2022/11/08 07:17:05;;;;;;;47.20;18.80;;;;;;;4.09;93.01;100440.86;104663;1303;25565;-61
2022/11/08 07:19:37;;;;;;;42.40;15.80;;;;;;;4.15;93.24;100439.02;103486;1281;22473;-61
2022/11/08 07:22:09;;;;;;;38.10;14.80;;;;;;;4.20;93.67;100436.77;103517;1281;25214;-61
2022/11/08 07:24:40;;;;;;;39.70;16.60;;;;;;;4.27;94.16;100437.94;103369;1303;25912;-61
2022/11/08 07:27:13;;;;;;;33.80;14.60;;;;;;;4.35;94.43;100430.15;104259;1304;22467;-61
2022/11/08 07:29:45;;;;;;;36.70;16.00;;;;;;;4.41;94.47;100427.71;103531;1303;24264;-61
2022/11/08 07:32:16;;;;;;;34.60;15.40;;;;;;;4.48;94.84;100432.35;103562;1281;22482;-61
2022/11/08 07:34:48;;;;;;;37.40;17.00;;;;;;;4.55;95.00;100430.91;103484;1304;22457;-61
2022/11/08 07:37:19;;;;;;;38.70;17.20;;;;;;;4.61;95.11;100434.92;103660;1303;22484;-62
2022/11/08 07:39:51;;;;;;;43.90;17.70;;;;;;;4.68;95.31;100430.98;103619;1288;25287;-62
2022/11/08 07:42:22;;;;;;;38.00;17.10;;;;;;;4.76;95.49;100431.08;103582;1284;25305;-61
2022/11/08 07:44:55;;;;;;;36.60;17.70;;;;;;;4.82;95.56;100425.77;103575;1280;22638;-61
2022/11/08 07:47:27;;;;;;;37.50;15.40;;;;;;;4.89;95.63;100424.95;103650;1296;22880;-60
2022/11/08 07:49:58;;;;;;;43.40;17.20;;;;;;;4.97;95.95;100419.06;104177;1296;24281;-60
2022/11/08 07:52:30;;;;;;;34.50;16.40;;;;;;;5.07;96.74;100422.42;103425;1304;23879;-60
2022/11/08 07:55:02;;;;;;;35.10;16.30;;;;;;;5.17;96.89;100419.36;103472;1305;22476;-62
2022/11/08 07:57:33;;;;;;;34.80;17.30;;;;;;;5.27;97.19;100424.38;103543;1304;24355;-61
2022/11/08 08:00:07;;;;;;;38.40;18.80;;;;;;;5.39;97.68;100427.35;103559;1303;25450;-61
2022/11/08 08:02:38;;;;;;;36.10;16.80;;;;;;;5.52;97.98;100425.41;103707;1304;22892;-61
2022/11/08 08:05:11;;;;;;;36.70;17.50;;;;;;;5.63;98.09;100426.09;103623;1288;22471;-60
2022/11/08 08:07:42;;;;;;;38.40;19.00;;;;;;;5.75;98.29;100425.27;103572;1296;22598;-61
2022/11/08 08:10:14;;;;;;;37.50;17.90;;;;;;;5.85;98.34;100419.04;103492;1290;22473;-60
2022/11/08 08:12:46;;;;;;;44.20;21.50;;;;;;;5.93;98.15;100415.09;103490;1303;22463;-59
2022/11/08 08:15:18;;;;;;;40.80;22.20;;;;;;;6.02;98.33;100418.98;103601;1298;22507;-60
2022/11/08 08:17:50;;;;;;;47.10;28.50;;;;;;;6.11;98.60;100417.12;103663;1303;22479;-60
2022/11/08 08:20:22;;;;;;;45.40;24.30;;;;;;;6.21;99.00;100415.20;103495;1304;22472;-60
2022/11/08 08:22:54;;;;;;;43.50;26.00;;;;;;;6.35;99.45;100415.80;103530;1295;25453;-61
2022/11/08 08:25:26;;;;;;;48.50;26.30;;;;;;;6.48;99.63;100413.29;103452;1296;22551;-61
2022/11/08 08:28:00;;;;;;;73.00;38.10;;;;;;;6.61;99.69;100415.39;103539;1303;25408;-61
2022/11/08 08:30:33;;;;;;;62.60;30.50;;;;;;;6.72;99.65;100420.58;103511;1283;22941;-61
2022/11/08 08:33:06;;;;;;;53.10;28.20;;;;;;;6.85;100.00;100421.61;103583;1298;23206;-60
2022/11/08 08:35:39;;;;;;;42.70;21.60;;;;;;;7.00;99.99;100415.55;103539;1304;23745;-59
2022/11/08 08:38:12;;;;;;;44.90;22.50;;;;;;;7.14;100.00;100419.23;103598;1273;22478;-60
2022/11/08 08:40:44;;;;;;;33.90;15.60;;;;;;;7.28;100.00;100416.80;103564;1288;25562;-62
2022/11/08 08:43:16;;;;;;;27.50;10.80;;;;;;;7.44;100.00;100416.63;103592;1302;25867;-60
2022/11/08 08:45:47;;;;;;;28.00;9.80;;;;;;;7.64;100.00;100418.58;103638;1303;26687;-62
2022/11/08 08:48:19;;;;;;;31.70;10.40;;;;;;;7.81;100.00;100419.50;103659;1303;22606;-60
2022/11/08 08:50:51;;;;;;;26.20;11.60;;;;;;;7.96;100.00;100417.65;103781;1303;27132;-61
2022/11/08 08:53:22;;;;;;;21.60;9.20;;;;;;;8.11;100.00;100424.42;103606;1296;25197;-62
2022/11/08 08:55:55;;;;;;;20.80;8.60;;;;;;;8.28;100.00;100423.54;103562;1291;22475;-62
2022/11/08 08:58:27;;;;;;;19.90;8.10;;;;;;;8.40;100.00;100426.61;103564;1279;24308;-60
2022/11/08 09:01:02;;;;;;;17.90;7.20;;;;;;;8.52;99.99;100427.48;103475;1281;22462;-62
2022/11/08 09:03:35;;;;;;;24.30;7.70;;;;;;;8.62;99.91;100425.15;103574;1291;25391;-60
2022/11/08 09:06:06;;;;;;;19.20;6.00;;;;;;;8.70;99.78;100424.95;103600;1296;22475;-62
2022/11/08 09:08:38;;;;;;;16.70;6.00;;;;;;;8.80;99.94;100424.45;103639;1294;22589;-62
2022/11/08 09:11:10;;;;;;;66.90;31.10;;;;;;;8.92;99.86;100428.15;103652;1304;22760;-62
2022/11/08 09:13:42;;;;;;;80.90;36.00;;;;;;;9.02;99.95;100423.58;103614;1281;22473;-62
2022/11/08 09:17:06;;;;;;;66.10;28.50;;;;;;;9.12;99.92;100420.23;103667;1281;25296;-62
2022/11/08 09:19:38;;;;;;;36.50;15.40;;;;;;;9.25;99.99;100417.17;103526;1297;23266;-61
2022/11/08 09:22:09;;;;;;;23.80;8.10;;;;;;;9.35;99.97;100417.02;103503;1289;25861;-62
2022/11/08 09:24:44;;;;;;;20.50;6.10;;;;;;;9.48;99.99;100417.94;103443;1281;24162;-61
2022/11/08 09:27:16;;;;;;;19.50;5.90;;;;;;;9.59;99.63;100414.52;103595;1303;24243;-64
2022/11/08 09:29:49;;;;;;;16.10;6.00;;;;;;;9.66;99.63;100407.95;103550;1303;23780;-64
2022/11/08 09:32:23;;;;;;;15.20;5.80;;;;;;;9.74;99.44;100409.98;103496;1303;22500;-63
2022/11/08 09:34:55;;;;;;;23.30;6.40;;;;;;;9.81;99.28;100414.88;103523;1303;24696;-62
2022/11/08 09:37:27;;;;;;;19.70;6.20;;;;;;;9.93;99.49;100412.77;103593;1281;22526;-62
2022/11/08 09:39:58;;;;;;;17.60;6.30;;;;;;;10.02;99.17;100417.34;103588;1304;25274;-61
2022/11/08 09:42:59;;;;;;;19.90;6.00;;;;;;;10.10;99.00;100418.06;103534;1304;25882;-63
2022/11/08 09:45:36;;;;;;;15.30;4.00;;;;;;;10.25;99.12;100416.49;103497;1303;22531;-62
2022/11/08 09:48:17;;;;;;;13.80;5.00;;;;;;;10.39;98.94;100417.08;103623;1304;22479;-63
2022/11/08 09:50:53;;;;;;;21.20;9.00;;;;;;;10.51;98.62;100411.89;103530;1298;22437;-63
2022/11/08 09:53:34;;;;;;;22.80;7.80;;;;;;;10.61;98.30;100405.38;103916;1303;22482;-62
2022/11/08 09:56:14;;;;;;;13.10;4.20;;;;;;;10.69;98.11;100402.09;104134;1279;22490;-61
2022/11/08 09:58:53;;;;;;;13.80;3.60;;;;;;;10.79;97.97;100400.69;103426;1300;22855;-63
2022/11/08 10:01:25;;;;;;;14.40;3.10;;;;;;;10.90;97.69;100405.33;103449;1271;22458;-63
2022/11/08 10:03:59;;;;;;;12.80;2.20;;;;;;;10.97;97.57;100399.99;103519;1299;22518;-61
2022/11/08 10:06:47;;;;;;;11.00;1.90;;;;;;;11.05;97.32;100398.83;103452;1280;22949;-62
2022/11/08 10:09:33;;;;;;;10.80;2.40;;;;;;;11.11;96.93;100394.37;103465;1281;22424;-62
2022/11/08 10:12:17;;;;;;;14.00;2.40;;;;;;;11.21;96.67;100394.34;103551;1303;22476;-61
2022/11/08 10:15:04;;;;;;;11.90;2.10;;;;;;;11.28;96.71;100392.75;103456;1303;26535;-61
2022/11/08 10:17:56;;;;;;;10.20;2.50;;;;;;;11.33;96.33;100392.90;103574;1297;23213;-63
2022/11/08 10:20:38;;;;;;;12.60;2.10;;;;;;;11.38;96.25;100390.04;103425;1281;27437;-61
2022/11/08 10:23:20;;;;;;;12.20;2.30;;;;;;;11.45;96.05;100386.51;103459;1304;22478;-62
2022/11/08 10:25:57;;;;;;;8.00;2.00;;;;;;;11.52;96.09;100381.99;103470;1303;22459;-62
2022/11/08 10:28:34;;;;;;;7.50;2.10;;;;;;;11.59;96.12;100379.08;103393;1281;22889;-61
2022/11/08 10:31:06;;;;;;;10.70;2.10;;;;;;;11.65;95.94;100373.69;103190;1280;354925;-63
2022/11/08 10:33:43;;;;;;;14.40;2.00;;;;;;;11.71;95.56;100371.78;103553;1281;23920;-63
2022/11/08 10:36:20;;;;;;;8.90;1.90;;;;;;;11.77;95.44;100372.19;103732;1297;25626;-61
2022/11/08 10:39:00;;;;;;;12.40;1.50;;;;;;;11.83;95.12;100369.27;103510;1303;23223;-62
2022/11/08 10:41:40;;;;;;;8.20;1.40;;;;;;;11.89;94.97;100366.92;103677;1303;22525;-62
2022/11/08 10:44:18;;;;;;;9.30;2.00;;;;;;;11.93;94.93;100362.11;103427;1303;22474;-62
2022/11/08 10:46:52;;;;;;;8.60;1.80;;;;;;;12.00;94.84;100363.70;103440;1303;25560;-63
2022/11/08 10:49:26;;;;;;;7.80;1.60;;;;;;;12.08;94.45;100359.19;103489;1281;22631;-64
2022/11/08 10:52:00;;;;;;;9.40;1.80;;;;;;;12.16;94.31;100355.04;103487;1280;25661;-63
2022/11/08 10:54:49;;;;;;;9.20;1.80;;;;;;;12.21;93.94;100348.23;103515;1291;22641;-62
2022/11/08 10:57:26;;;;;;;13.30;2.30;;;;;;;12.23;93.76;100345.56;103570;1302;24408;-62
2022/11/08 11:00:15;;;;;;;11.10;2.00;;;;;;;12.25;93.56;100342.79;103505;1303;24293;-62
2022/11/08 11:02:48;;;;;;;8.10;1.60;;;;;;;12.26;93.19;100344.58;103490;1289;23127;-61
2022/11/08 11:05:29;;;;;;;10.80;1.90;;;;;;;12.28;93.01;100336.67;103535;1303;22596;-61
2022/11/08 11:08:04;;;;;;;10.30;2.00;;;;;;;12.35;93.00;100332.69;103554;1304;22463;-63
2022/11/08 11:10:39;;;;;;;10.20;1.90;;;;;;;12.44;93.08;100329.96;103590;1303;22475;-63
2022/11/08 11:13:14;;;;;;;6.90;1.40;;;;;;;12.52;92.75;100330.01;103404;1296;22467;-62
2022/11/08 11:15:50;;;;;;;10.40;2.10;;;;;;;12.62;92.21;100333.23;103325;1281;22481;-63
2022/11/08 11:18:30;;;;;;;9.00;1.90;;;;;;;12.70;91.92;100334.67;103382;1303;25385;-62
2022/11/08 11:21:09;;;;;;;7.00;1.40;;;;;;;12.77;91.75;100326.70;103423;1303;22673;-62
2022/11/08 11:23:45;;;;;;;9.30;1.40;;;;;;;12.81;91.39;100325.16;103439;1303;22460;-64
2022/11/08 11:26:31;;;;;;;11.80;1.30;;;;;;;12.85;91.26;100326.17;103244;1282;22988;-65
2022/11/08 11:29:18;;;;;;;7.60;1.20;;;;;;;12.90;90.85;100319.27;103209;1291;24311;-62
2022/11/08 11:31:52;;;;;;;8.90;1.10;;;;;;;12.94;90.54;100314.67;103429;1304;22485;-63
2022/11/08 11:34:41;;;;;;;5.90;1.30;;;;;;;12.96;90.37;100318.55;103448;1290;22461;-62
2022/11/08 11:37:22;;;;;;;5.50;1.10;;;;;;;13.01;90.08;100318.15;103349;1303;22889;-64
2022/11/08 11:40:16;;;;;;;7.30;1.30;;;;;;;13.08;90.15;100312.73;103440;1282;24359;-63
2022/11/08 11:42:57;;;;;;;4.00;0.90;;;;;;;13.12;89.84;100314.27;103473;1281;22449;-61
2022/11/08 11:45:32;;;;;;;6.50;0.90;;;;;;;13.17;89.70;100311.16;103545;1281;22475;-63
2022/11/08 11:48:11;;;;;;;7.80;0.80;;;;;;;13.25;89.25;100306.28;103512;1304;24331;-62
2022/11/08 11:50:47;;;;;;;4.10;0.80;;;;;;;13.32;88.97;100303.03;103528;1304;22510;-62
2022/11/08 11:53:23;;;;;;;7.00;0.90;;;;;;;13.37;88.65;100303.84;103553;1303;22416;-62
2022/11/08 11:56:19;;;;;;;7.90;0.90;;;;;;;13.41;88.63;100297.95;103471;1288;22590;-62
2022/11/08 11:59:14;;;;;;;5.10;1.10;;;;;;;13.45;88.59;100300.85;104198;1281;25385;-63
2022/11/08 12:02:01;;;;;;;7.50;1.10;;;;;;;13.47;88.13;100296.95;103103;1279;23022;-62
2022/11/08 12:05:04;;;;;;;5.40;0.90;;;;;;;13.50;87.72;100292.67;102904;1287;22479;-64
2022/11/08 12:07:45;;;;;;;4.30;1.00;;;;;;;13.54;87.57;100289.80;103214;1286;22571;-63